Time;durP1;ratioP1;P1;durP2;ratioP2;P2;SDS_P1;SDS_P2;PMS_P1;PMS_P2;Temp;Humidity;BMP_temperature;BMP_pressure;BME280_temperature;BME280_humidity;BME280_pressure;Samples;Min_cycle;Max_cycle;Signal;HPM_P1;HPM_P2
2023/04/01 00:00:09;;;;;;;4.22;0.80;;;;;;;10.12;100.00;98773.50;5045158;28;20036;-75
2023/04/01 00:02:37;;;;;;;3.42;0.88;;;;;;;10.02;100.00;98770.28;5041839;28;20048;-75
2023/04/01 00:05:03;;;;;;;1.67;0.57;;;;;;;9.89;100.00;98769.81;5045072;28;20029;-75
2023/04/01 00:07:28;;;;;;;4.75;1.33;;;;;;;9.93;100.00;98770.56;5040836;28;20037;-75
2023/04/01 00:09:54;;;;;;;4.43;1.00;;;;;;;9.90;100.00;98765.41;5048299;28;20068;-75
2023/04/01 00:12:20;;;;;;;4.13;1.10;;;;;;;9.86;100.00;98769.91;5043390;28;20116;-75
2023/04/01 00:14:45;;;;;;;3.13;0.60;;;;;;;9.86;100.00;98765.50;5044336;28;20104;-75
2023/04/01 00:17:11;;;;;;;3.78;0.95;;;;;;;9.89;100.00;98764.53;5042368;28;20036;-75
2023/04/01 00:19:36;;;;;;;5.85;1.58;;;;;;;9.87;100.00;98766.38;5043451;28;20049;-74
2023/04/01 00:22:02;;;;;;;3.85;0.77;;;;;;;9.86;100.00;98764.66;5042211;28;20033;-74
2023/04/01 00:24:28;;;;;;;2.08;0.70;;;;;;;9.82;100.00;98758.63;5043883;28;20037;-75
2023/04/01 00:26:54;;;;;;;4.93;1.38;;;;;;;9.88;100.00;98760.19;5046782;28;20033;-75
2023/04/01 00:29:20;;;;;;;1.88;0.43;;;;;;;9.87;100.00;98761.94;5042528;28;20038;-76
2023/04/01 00:31:45;;;;;;;3.05;0.60;;;;;;;9.91;100.00;98769.78;5042987;28;20043;-75
2023/04/01 00:34:12;;;;;;;3.83;0.82;;;;;;;9.93;100.00;98766.19;5041674;28;20459;-76
2023/04/01 00:36:38;;;;;;;4.95;0.95;;;;;;;9.94;100.00;98767.03;5044874;28;20037;-75
2023/04/01 00:39:03;;;;;;;1.58;0.77;;;;;;;9.94;100.00;98764.41;5043860;28;20040;-75
2023/04/01 00:41:28;;;;;;;2.25;0.60;;;;;;;9.87;100.00;98761.09;5044514;28;20042;-76
2023/04/01 00:44:16;;;;;;;3.92;0.60;;;;;;;9.94;100.00;98762.63;5042355;28;20076;-75
2023/04/01 00:46:42;;;;;;;2.80;0.57;;;;;;;9.95;100.00;98761.72;5041010;28;20048;-75
2023/04/01 00:49:09;;;;;;;3.80;0.90;;;;;;;9.92;100.00;98761.81;5042723;28;20029;-75
2023/04/01 00:51:36;;;;;;;2.47;0.63;;;;;;;9.92;100.00;98767.06;5046324;28;20068;-76
2023/04/01 00:54:03;;;;;;;2.78;0.63;;;;;;;9.87;100.00;98764.59;5041062;28;20547;-75
2023/04/01 00:56:40;;;;;;;3.25;0.85;;;;;;;9.86;100.00;98762.88;5041783;28;20025;-75
2023/04/01 00:59:15;;;;;;;3.67;0.60;;;;;;;9.85;100.00;98768.19;5022663;28;20038;-75
2023/04/01 01:01:41;;;;;;;2.28;0.60;;;;;;;9.83;100.00;98764.75;5045858;28;20120;-75
2023/04/01 01:04:07;;;;;;;2.28;0.40;;;;;;;9.81;100.00;98759.50;5041619;28;20115;-74
2023/04/01 01:06:56;;;;;;;2.20;0.43;;;;;;;9.80;100.00;98765.72;5045382;28;20037;-75
2023/04/01 01:09:43;;;;;;;1.95;0.47;;;;;;;9.80;100.00;98764.84;5047353;28;20438;-76
2023/04/01 01:12:26;;;;;;;2.08;0.45;;;;;;;9.77;100.00;98764.91;5049665;28;20038;-75
2023/04/01 01:15:07;;;;;;;3.78;0.70;;;;;;;9.73;100.00;98763.31;5045311;28;20041;-75
2023/04/01 01:17:47;;;;;;;1.50;0.50;;;;;;;9.73;100.00;98777.34;5041274;28;20091;-74
2023/04/01 01:20:25;;;;;;;2.13;0.47;;;;;;;9.69;100.00;98766.94;5041246;28;20296;-75
2023/04/01 01:23:09;;;;;;;4.25;0.60;;;;;;;9.70;100.00;98771.31;5040895;28;20056;-75
2023/04/01 01:25:53;;;;;;;3.22;1.20;;;;;;;9.74;100.00;98765.03;5041304;28;20045;-75
2023/04/01 01:28:53;;;;;;;2.42;0.47;;;;;;;9.80;100.00;98767.50;5042358;28;20037;-76
2023/04/01 01:31:36;;;;;;;1.77;0.50;;;;;;;9.79;100.00;98774.50;5040358;28;20036;-75
2023/04/01 01:34:14;;;;;;;3.05;0.47;;;;;;;9.80;100.00;98770.13;5041562;28;20480;-75
2023/04/01 01:36:42;;;;;;;2.75;0.50;;;;;;;9.83;100.00;98776.16;5043657;28;20029;-75
2023/04/01 01:39:09;;;;;;;3.80;1.00;;;;;;;9.82;100.00;98771.81;5040143;28;20037;-75
2023/04/01 01:41:39;;;;;;;2.70;0.40;;;;;;;9.88;100.00;98773.38;5041765;28;20025;-75
2023/04/01 01:44:07;;;;;;;2.03;0.65;;;;;;;9.90;100.00;98776.81;5049593;28;20462;-75
2023/04/01 01:46:32;;;;;;;2.55;0.95;;;;;;;9.94;100.00;98782.84;5043514;28;20054;-75
2023/04/01 01:49:00;;;;;;;2.30;0.63;;;;;;;9.97;100.00;98772.22;5039452;28;20641;-75
2023/04/01 01:51:27;;;;;;;2.55;0.50;;;;;;;10.00;100.00;98770.31;5042758;28;20025;-76
2023/04/01 01:53:53;;;;;;;3.10;0.52;;;;;;;10.02;100.00;98779.06;5039964;28;20037;-75
2023/04/01 01:56:23;;;;;;;3.00;0.50;;;;;;;10.03;100.00;98778.16;5040518;28;20049;-75
2023/04/01 01:58:58;;;;;;;1.13;0.38;;;;;;;10.04;100.00;98776.38;5038812;28;20041;-75
2023/04/01 02:01:26;;;;;;;2.40;0.50;;;;;;;10.01;100.00;98779.13;5043360;28;20033;-75
2023/04/01 02:03:57;;;;;;;2.70;0.40;;;;;;;9.99;100.00;98771.25;5048299;28;20407;-75
2023/04/01 02:06:28;;;;;;;2.97;0.60;;;;;;;9.99;100.00;98771.25;5039613;28;20573;-75
2023/04/01 02:09:07;;;;;;;2.60;0.88;;;;;;;9.98;100.00;98774.81;5045684;28;20033;-75
2023/04/01 02:11:59;;;;;;;4.38;0.70;;;;;;;9.99;100.00;98771.25;5040464;28;20082;-75
2023/04/01 02:14:28;;;;;;;1.52;0.38;;;;;;;9.99;100.00;98767.75;5040149;28;20090;-75
2023/04/01 02:17:01;;;;;;;4.78;0.73;;;;;;;9.99;100.00;98773.88;5040795;28;20076;-75
2023/04/01 02:19:33;;;;;;;1.80;0.55;;;;;;;10.00;100.00;98775.59;5039960;28;20134;-75
2023/04/01 02:22:02;;;;;;;3.03;1.00;;;;;;;9.95;100.00;98782.78;5041340;28;20082;-75
2023/04/01 02:24:31;;;;;;;4.13;0.75;;;;;;;9.98;100.00;98772.19;5038343;28;20074;-75
2023/04/01 02:26:56;;;;;;;1.33;0.40;;;;;;;9.94;100.00;98772.31;5039601;28;20037;-74
2023/04/01 02:29:25;;;;;;;3.63;0.60;;;;;;;9.97;100.00;98770.44;5038706;28;20124;-75
2023/04/01 02:31:52;;;;;;;2.38;0.45;;;;;;;9.98;100.00;98774.81;5037015;28;20040;-75
2023/04/01 02:34:19;;;;;;;2.83;0.65;;;;;;;9.99;100.00;98775.66;5039902;28;20036;-75
2023/04/01 02:36:46;;;;;;;1.85;0.40;;;;;;;9.97;100.00;98783.59;5039555;28;20427;-75
2023/04/01 02:39:13;;;;;;;2.25;0.43;;;;;;;9.96;100.00;98779.25;5042185;28;20430;-75
2023/04/01 02:41:40;;;;;;;2.83;0.60;;;;;;;9.95;100.00;98784.56;5039889;28;20040;-75
2023/04/01 02:44:06;;;;;;;2.13;0.52;;;;;;;9.91;100.00;98786.44;5043791;28;20041;-75
2023/04/01 02:46:31;;;;;;;4.57;0.70;;;;;;;9.91;100.00;98794.34;5043244;28;20095;-75
2023/04/01 02:48:56;;;;;;;4.30;1.17;;;;;;;9.87;100.00;98787.44;5046505;28;20029;-75
2023/04/01 02:51:22;;;;;;;3.85;0.60;;;;;;;9.87;100.00;98792.72;5047821;28;20164;-75
2023/04/01 02:53:47;;;;;;;2.58;0.55;;;;;;;9.87;100.00;98800.63;5042941;28;20514;-75
2023/04/01 02:56:12;;;;;;;2.83;0.60;;;;;;;9.89;100.00;98798.81;5044131;28;20511;-75
2023/04/01 02:58:38;;;;;;;3.22;0.80;;;;;;;9.91;100.00;98804.03;5043954;28;20041;-75
2023/04/01 03:01:03;;;;;;;1.63;0.65;;;;;;;9.92;100.00;98800.47;5044968;28;20701;-74
2023/04/01 03:03:28;;;;;;;3.63;0.73;;;;;;;9.89;100.00;98801.44;5043810;28;20037;-75
2023/04/01 03:05:56;;;;;;;2.90;0.40;;;;;;;9.91;100.00;98807.53;5046599;28;20052;-75
2023/04/01 03:08:21;;;;;;;4.03;0.77;;;;;;;9.95;100.00;98805.66;5047180;28;20402;-75
2023/04/01 03:10:47;;;;;;;4.00;0.65;;;;;;;9.96;100.00;98802.13;5044886;28;20033;-75
2023/04/01 03:13:12;;;;;;;2.10;0.50;;;;;;;10.02;100.00;98802.78;5045743;28;20506;-75
2023/04/01 03:15:37;;;;;;;1.35;0.50;;;;;;;9.99;100.00;98796.75;5041705;28;20494;-75
2023/04/01 03:18:03;;;;;;;2.00;0.55;;;;;;;9.99;100.00;98802.03;5047774;28;20037;-75
2023/04/01 03:20:28;;;;;;;4.45;0.88;;;;;;;9.98;100.00;98800.28;5044342;28;20041;-75
2023/04/01 03:22:54;;;;;;;4.38;0.70;;;;;;;10.04;100.00;98803.59;5041158;28;20045;-75
2023/04/01 03:25:19;;;;;;;2.72;0.60;;;;;;;9.99;100.00;98802.03;5033440;28;20455;-75
2023/04/01 03:27:45;;;;;;;2.03;0.70;;;;;;;10.01;100.00;98801.06;5036396;28;20609;-77
2023/04/01 03:30:11;;;;;;;5.68;0.63;;;;;;;10.07;100.00;98797.38;5044208;28;20056;-77
2023/04/01 03:32:44;;;;;;;2.72;0.55;;;;;;;10.04;100.00;98811.50;5043592;28;20043;-77
2023/04/01 03:35:10;;;;;;;3.13;0.70;;;;;;;10.06;100.00;98807.06;5042126;28;20407;-77
2023/04/01 03:37:35;;;;;;;4.07;0.57;;;;;;;10.02;100.00;98808.06;5044470;28;20033;-77
2023/04/01 03:40:01;;;;;;;3.00;0.50;;;;;;;10.07;100.00;98806.13;5027755;28;20651;-77
2023/04/01 03:42:26;;;;;;;4.40;0.63;;;;;;;10.10;100.00;98805.19;5047161;28;20479;-78
2023/04/01 03:44:51;;;;;;;4.47;0.70;;;;;;;10.04;100.00;98805.38;5045787;28;20106;-77
2023/04/01 03:47:17;;;;;;;4.90;0.75;;;;;;;10.05;100.00;98820.28;5050564;28;20025;-77
2023/04/01 03:49:42;;;;;;;2.15;0.60;;;;;;;10.08;100.00;98817.53;5043316;28;20463;-77
2023/04/01 03:52:10;;;;;;;1.77;0.60;;;;;;;10.07;100.00;98821.94;5042449;28;20035;-77
2023/04/01 03:54:36;;;;;;;4.80;0.82;;;;;;;10.06;100.00;98812.31;5034513;28;20048;-77
2023/04/01 03:57:01;;;;;;;8.15;1.23;;;;;;;10.10;100.00;98819.22;5045327;28;20021;-77
2023/04/01 03:59:28;;;;;;;2.95;0.70;;;;;;;10.15;100.00;98820.84;5027440;28;20123;-77
2023/04/01 04:01:54;;;;;;;4.20;1.08;;;;;;;10.15;100.00;98823.50;5045206;28;20579;-77
2023/04/01 04:04:20;;;;;;;2.15;0.65;;;;;;;10.13;100.00;98822.66;5045465;28;20421;-76
2023/04/01 04:06:45;;;;;;;3.20;0.82;;;;;;;10.18;100.00;98823.38;5043294;28;20029;-77
2023/04/01 04:09:11;;;;;;;4.78;0.77;;;;;;;10.16;100.00;98828.69;5042794;28;20507;-77
2023/04/01 04:11:36;;;;;;;4.68;1.02;;;;;;;10.21;100.00;98823.28;5045321;28;20123;-77
2023/04/01 04:14:03;;;;;;;3.80;0.90;;;;;;;10.17;100.00;98822.53;5040735;28;20058;-77
2023/04/01 04:16:28;;;;;;;5.13;0.90;;;;;;;10.18;100.00;98826.88;5043424;28;20036;-77
2023/04/01 04:18:58;;;;;;;3.05;0.75;;;;;;;10.20;100.00;98826.84;5039946;28;20025;-77
2023/04/01 04:21:23;;;;;;;2.22;0.60;;;;;;;10.19;100.00;98830.38;5045739;28;20035;-77
2023/04/01 04:23:48;;;;;;;2.70;0.75;;;;;;;10.17;100.00;98826.94;5043372;28;20032;-78
2023/04/01 04:26:16;;;;;;;3.95;0.57;;;;;;;10.18;100.00;98834.78;5040645;28;20639;-77
2023/04/01 04:28:48;;;;;;;3.20;0.75;;;;;;;10.21;100.00;98837.31;5049424;28;20430;-78
2023/04/01 04:31:20;;;;;;;3.70;0.75;;;;;;;10.24;100.00;98844.28;5041630;28;20044;-77
2023/04/01 04:33:45;;;;;;;4.72;0.90;;;;;;;10.22;100.00;98840.84;5040780;28;20056;-77
2023/04/01 04:36:11;;;;;;;4.40;0.90;;;;;;;10.21;100.00;98842.59;5042164;28;20450;-77
2023/04/01 04:38:37;;;;;;;5.05;1.00;;;;;;;10.24;100.00;98839.88;5046584;28;20029;-77
2023/04/01 04:41:03;;;;;;;3.80;1.00;;;;;;;10.26;100.00;98843.31;5042442;28;20038;-77
2023/04/01 04:43:29;;;;;;;3.75;1.05;;;;;;;10.29;100.00;98842.38;5042874;28;20037;-77
2023/04/01 04:45:55;;;;;;;2.33;0.85;;;;;;;10.29;100.00;98845.03;5039933;28;20040;-77
2023/04/01 04:48:20;;;;;;;2.88;0.77;;;;;;;10.27;100.00;98844.16;5043031;28;20120;-77
2023/04/01 04:50:48;;;;;;;4.28;1.20;;;;;;;10.35;100.00;98847.47;5045343;28;20033;-77
2023/04/01 04:53:16;;;;;;;4.10;0.90;;;;;;;10.31;100.00;98837.94;5039707;28;20064;-77
2023/04/01 04:55:46;;;;;;;2.67;0.55;;;;;;;10.36;100.00;98843.06;5042704;28;20072;-77
2023/04/01 04:58:24;;;;;;;2.45;0.80;;;;;;;10.36;100.00;98843.91;5042050;28;20075;-77
2023/04/01 05:00:49;;;;;;;2.88;0.50;;;;;;;10.37;100.00;98852.69;5047597;28;20120;-78
2023/04/01 05:03:23;;;;;;;3.50;0.85;;;;;;;10.35;100.00;98847.47;5044046;28;20115;-77
2023/04/01 05:05:51;;;;;;;5.68;0.60;;;;;;;10.35;100.00;98855.41;5046830;28;20465;-76
2023/04/01 05:08:17;;;;;;;3.15;0.93;;;;;;;10.37;100.00;98857.97;5041024;28;20075;-77
2023/04/01 05:10:42;;;;;;;2.92;0.52;;;;;;;10.42;100.00;98859.53;5043658;28;20032;-77
2023/04/01 05:13:08;;;;;;;3.78;0.73;;;;;;;10.49;100.00;98862.84;5039866;28;20086;-77
2023/04/01 05:15:33;;;;;;;4.57;0.80;;;;;;;10.53;100.00;98864.47;5043311;28;20546;-77
2023/04/01 05:17:59;;;;;;;3.08;0.85;;;;;;;10.45;100.00;98866.50;5040039;28;20033;-77
2023/04/01 05:20:25;;;;;;;5.75;0.80;;;;;;;10.48;100.00;98867.28;5041092;28;20036;-76
2023/04/01 05:22:55;;;;;;;2.50;0.60;;;;;;;10.50;100.00;98864.56;5040067;28;20037;-77
2023/04/01 05:25:21;;;;;;;3.30;0.60;;;;;;;10.52;100.00;98870.66;5041708;28;20025;-77
2023/04/01 05:27:46;;;;;;;3.38;0.88;;;;;;;10.47;100.00;98873.44;5043858;28;20383;-77
2023/04/01 05:30:12;;;;;;;4.20;0.70;;;;;;;10.46;100.00;98877.00;5041872;28;20400;-77
2023/04/01 05:32:52;;;;;;;3.90;0.75;;;;;;;10.49;100.00;98871.63;5039208;28;20056;-77
2023/04/01 05:35:18;;;;;;;2.20;0.52;;;;;;;10.52;100.00;98876.78;5041748;28;20494;-77
2023/04/01 05:37:43;;;;;;;3.78;0.73;;;;;;;10.51;100.00;98875.09;5040444;28;20094;-77
2023/04/01 05:40:09;;;;;;;3.40;0.80;;;;;;;10.53;100.00;98875.00;5043427;28;20033;-77
2023/04/01 05:42:35;;;;;;;3.42;0.65;;;;;;;10.61;100.00;98880.03;5043719;28;20078;-78
2023/04/01 05:45:00;;;;;;;4.28;0.65;;;;;;;10.62;100.00;98882.63;5041096;28;20410;-77
2023/04/01 05:47:44;;;;;;;2.03;0.60;;;;;;;10.69;100.00;98884.19;5043376;28;20094;-78
2023/04/01 05:50:10;;;;;;;4.30;1.00;;;;;;;10.71;100.00;98886.75;5038194;28;20029;-77
2023/04/01 05:52:37;;;;;;;5.40;0.73;;;;;;;10.75;100.00;98880.47;5049975;28;20110;-77
2023/04/01 05:55:03;;;;;;;4.78;1.10;;;;;;;10.75;100.00;98888.38;5038508;28;20669;-77
2023/04/01 05:57:29;;;;;;;1.88;0.60;;;;;;;10.69;100.00;98891.22;5042737;28;20118;-78
2023/04/01 05:59:54;;;;;;;1.92;0.45;;;;;;;10.62;100.00;98894.97;5038371;28;20076;-77
2023/04/01 06:02:19;;;;;;;2.50;0.63;;;;;;;10.68;100.00;98892.13;5041497;28;20033;-77
2023/04/01 06:04:45;;;;;;;4.55;0.68;;;;;;;10.70;100.00;98906.13;5045450;28;20507;-77
2023/04/01 06:07:12;;;;;;;2.75;0.70;;;;;;;10.77;100.00;98902.41;5041132;28;20485;-77
2023/04/01 06:09:38;;;;;;;1.85;0.60;;;;;;;10.80;100.00;98899.66;5043192;28;20402;-77
2023/04/01 06:12:22;;;;;;;1.55;0.52;;;;;;;10.80;100.00;98898.78;5040393;28;20033;-77
2023/04/01 06:15:13;;;;;;;4.47;0.70;;;;;;;10.81;100.00;98896.09;5043791;28;20055;-78
2023/04/01 06:18:18;;;;;;;4.07;1.00;;;;;;;10.88;100.00;98900.25;5055779;28;20032;-78
2023/04/01 06:20:53;;;;;;;4.18;1.30;;;;;;;10.93;100.00;98900.97;5038746;28;20042;-77
2023/04/01 06:23:51;;;;;;;6.75;1.20;;;;;;;11.04;100.00;98910.31;5039472;28;20116;-78
2023/04/01 06:26:27;;;;;;;5.60;1.10;;;;;;;11.04;100.00;98913.78;5043602;28;20029;-78
2023/04/01 06:29:07;;;;;;;5.18;1.00;;;;;;;11.09;100.00;98918.94;5039971;28;20036;-77
2023/04/01 06:31:56;;;;;;;3.38;0.93;;;;;;;11.07;100.00;98915.47;5039251;28;20463;-78
2023/04/01 06:34:47;;;;;;;3.72;1.13;;;;;;;11.05;100.00;98922.56;5039902;28;20120;-77
2023/04/01 06:37:32;;;;;;;3.75;0.77;;;;;;;11.08;100.00;98911.91;5032300;28;20033;-77
2023/04/01 06:40:24;;;;;;;4.15;0.80;;;;;;;11.15;100.00;98918.72;5038109;28;20484;-77
2023/04/01 06:42:57;;;;;;;;;;;;;;;11.16;100.00;98915.13;5023893;28;20041;-77
2023/04/01 06:45:51;;;;;;;3.88;0.82;;;;;;;11.19;100.00;98920.34;5038892;28;19917;-76
2023/04/01 06:48:53;;;;;;;2.92;0.80;;;;;;;11.16;100.00;98925.69;5042555;28;20091;-78
2023/04/01 06:51:40;;;;;;;2.35;0.80;;;;;;;11.22;100.00;98920.22;5039772;28;20560;-78
2023/04/01 06:54:32;;;;;;;2.35;0.55;;;;;;;11.29;100.00;98926.16;5040096;28;20581;-77
2023/04/01 06:57:34;;;;;;;2.28;0.52;;;;;;;11.25;100.00;98920.13;5041964;28;20486;-77
2023/04/01 07:00:12;;;;;;;2.65;0.70;;;;;;;11.31;100.00;98925.19;5043329;28;20036;-77
2023/04/01 07:02:55;;;;;;;3.30;0.73;;;;;;;11.35;100.00;98918.88;5038801;28;20442;-77
2023/04/01 07:05:22;;;;;;;2.95;0.50;;;;;;;11.30;100.00;98923.47;5038886;28;20033;-77
2023/04/01 07:07:52;;;;;;;2.03;0.52;;;;;;;11.34;100.00;98933.03;5040463;28;20029;-77
2023/04/01 07:10:44;;;;;;;2.72;0.65;;;;;;;11.35;100.00;98921.53;5038796;28;20113;-77
2023/04/01 07:13:50;;;;;;;2.20;0.70;;;;;;;11.35;100.00;98929.44;5043998;28;20040;-78
2023/04/01 07:16:36;;;;;;;3.80;0.73;;;;;;;11.30;100.00;98927.91;5043990;28;20116;-77
2023/04/01 07:19:18;;;;;;;5.07;1.05;;;;;;;11.37;100.00;98938.19;5037490;28;20044;-77
2023/04/01 07:22:33;;;;;;;7.07;1.05;;;;;;;11.35;100.00;98925.97;5041431;28;20079;-77
2023/04/01 07:25:36;;;;;;;4.20;0.88;;;;;;;11.38;100.00;98931.97;5020629;28;20080;-77
2023/04/01 07:28:30;;;;;;;3.20;0.70;;;;;;;11.39;100.00;98938.97;5016029;28;20120;-77
2023/04/01 07:31:10;;;;;;;3.67;1.08;;;;;;;11.54;100.00;98934.94;5043831;28;20183;-77
2023/04/01 07:33:46;;;;;;;5.00;1.13;;;;;;;11.66;100.00;98946.88;5048264;28;20026;-77
2023/04/01 07:36:29;;;;;;;4.45;0.70;;;;;;;11.72;100.00;98944.00;5043927;28;20048;-77
2023/04/01 07:39:19;;;;;;;2.83;0.73;;;;;;;11.68;100.00;98947.66;5041336;28;20124;-78
2023/04/01 07:42:43;;;;;;;6.50;0.70;;;;;;;11.81;100.00;98946.28;5041130;28;20064;-77
2023/04/01 07:45:33;;;;;;;3.20;0.70;;;;;;;11.87;100.00;98958.47;5043774;28;20032;-77
2023/04/01 07:48:19;;;;;;;4.93;0.82;;;;;;;11.94;100.00;98953.81;5040536;28;20029;-77
2023/04/01 07:51:23;;;;;;;2.50;0.63;;;;;;;12.02;100.00;98960.53;5043078;28;20047;-77
2023/04/01 07:54:02;;;;;;;7.45;1.00;;;;;;;12.12;100.00;98966.34;5046558;28;20036;-77
2023/04/01 07:56:52;;;;;;;3.80;0.80;;;;;;;12.13;100.00;98968.09;5042672;28;20033;-77
2023/04/01 07:59:36;;;;;;;2.25;0.60;;;;;;;12.27;100.00;98959.63;5042932;28;20462;-77
2023/04/01 08:02:56;;;;;;;4.25;0.55;;;;;;;12.37;100.00;98966.31;5043584;28;20123;-77
2023/04/01 08:05:28;;;;;;;2.63;0.70;;;;;;;12.59;100.00;98962.81;5047097;28;20036;-77
2023/04/01 08:08:08;;;;;;;2.72;0.70;;;;;;;12.67;100.00;98964.22;5043507;28;20025;-77
2023/04/01 08:11:27;;;;;;;2.58;0.70;;;;;;;12.78;100.00;98965.59;5044853;28;20588;-77
2023/04/01 08:14:29;;;;;;;3.00;0.82;;;;;;;12.64;97.93;98976.72;5042433;28;20040;-77
2023/04/01 08:17:26;;;;;;;3.75;1.02;;;;;;;12.58;98.17;98969.91;5044693;28;20504;-77
2023/04/01 08:20:08;;;;;;;3.85;1.00;;;;;;;12.45;96.84;98971.28;5024550;28;20076;-76
2023/04/01 08:22:50;;;;;;;2.60;0.70;;;;;;;12.36;98.97;98976.94;5045073;28;20430;-77
2023/04/01 08:25:26;;;;;;;4.55;0.70;;;;;;;12.40;98.03;98983.84;5041538;28;20048;-77
2023/04/01 08:28:10;;;;;;;3.33;0.65;;;;;;;12.27;97.40;98979.00;5044281;28;20372;-77
2023/04/01 08:30:41;;;;;;;3.75;0.93;;;;;;;12.31;97.05;98985.03;5040349;28;20503;-77
2023/04/01 08:33:27;;;;;;;2.70;0.60;;;;;;;12.42;97.99;98979.34;5043545;28;20043;-77
2023/04/01 08:36:16;;;;;;;3.50;0.70;;;;;;;12.48;97.24;98984.41;5041287;28;20038;-77
2023/04/01 08:39:15;;;;;;;4.30;0.68;;;;;;;12.47;96.17;98980.91;5043804;28;20036;-78
2023/04/01 08:42:19;;;;;;;4.60;0.63;;;;;;;12.50;97.20;98985.22;5040112;28;20037;-77
2023/04/01 08:45:18;;;;;;;3.17;0.70;;;;;;;12.56;96.53;98987.63;5044787;28;20056;-77
2023/04/01 08:48:26;;;;;;;2.42;0.60;;;;;;;12.82;94.19;98993.66;5050462;28;20029;-77
2023/04/01 08:51:18;;;;;;;2.40;0.45;;;;;;;12.86;95.37;98985.56;5040242;28;20547;-77
2023/04/01 08:54:03;;;;;;;5.93;0.60;;;;;;;13.02;94.33;98984.91;5040075;28;20041;-77
2023/04/01 08:56:53;;;;;;;4.35;0.80;;;;;;;13.15;92.17;98987.00;5039950;28;20029;-77
2023/04/01 08:59:32;;;;;;;4.28;0.70;;;;;;;13.20;91.24;98980.66;5040816;28;20526;-77
2023/04/01 09:02:25;;;;;;;4.22;0.65;;;;;;;13.47;90.96;98976.03;5040300;28;20029;-77
2023/04/01 09:05:22;;;;;;;5.47;1.10;;;;;;;13.53;91.29;98976.59;5041062;28;20044;-77
2023/04/01 09:08:06;;;;;;;3.15;0.80;;;;;;;13.67;90.45;98975.13;5023901;28;20520;-77
2023/04/01 09:10:46;;;;;;;4.65;1.20;;;;;;;13.76;91.09;98970.31;5043149;28;20453;-77
2023/04/01 09:14:02;;;;;;;3.85;0.82;;;;;;;13.88;89.49;98981.28;5021823;28;20041;-77
2023/04/01 09:16:56;;;;;;;1.75;0.50;;;;;;;13.75;87.35;98975.66;5044639;28;20025;-77
2023/04/01 09:19:37;;;;;;;2.40;0.63;;;;;;;13.56;87.66;98981.78;5041334;28;20041;-78
2023/04/01 09:22:22;;;;;;;3.75;1.00;;;;;;;13.48;89.53;98978.59;5043890;28;20040;-77
2023/04/01 09:25:14;;;;;;;3.97;0.75;;;;;;;13.42;87.40;98978.88;5040746;28;20064;-77
2023/04/01 09:27:45;;;;;;;4.28;0.93;;;;;;;13.59;88.21;98984.28;5028608;28;20084;-77
2023/04/01 09:30:31;;;;;;;0.85;0.40;;;;;;;13.66;89.00;98992.00;5043204;28;20454;-77
2023/04/01 09:33:20;;;;;;;1.50;0.50;;;;;;;13.56;88.72;98992.38;5041483;28;20487;-78
2023/04/01 09:36:13;;;;;;;2.20;0.70;;;;;;;13.78;86.82;98986.13;5039515;28;20033;-75
2023/04/01 09:38:56;;;;;;;2.47;0.60;;;;;;;14.00;88.21;98989.56;5039761;28;20068;-75
2023/04/01 09:41:32;;;;;;;5.38;0.77;;;;;;;14.34;88.15;98990.69;5042498;28;20025;-75
2023/04/01 09:44:23;;;;;;;2.22;0.50;;;;;;;14.47;85.17;98983.88;5043254;28;20057;-75
2023/04/01 09:47:16;;;;;;;4.13;1.05;;;;;;;14.57;84.99;99002.09;5040520;28;20033;-75
2023/04/01 09:50:14;;;;;;;4.20;0.63;;;;;;;14.50;84.59;98990.84;5038371;28;20048;-75
2023/04/01 09:53:21;;;;;;;2.97;0.70;;;;;;;14.52;83.99;98993.44;5044419;28;20280;-75
2023/04/01 09:56:29;;;;;;;2.13;0.85;;;;;;;14.81;84.82;98990.28;5044615;28;20029;-75
2023/04/01 09:59:07;;;;;;;4.47;0.95;;;;;;;14.87;84.63;98986.47;5031334;28;20053;-75
2023/04/01 10:02:15;;;;;;;2.17;0.63;;;;;;;15.03;84.47;98989.25;5040499;28;20145;-75
2023/04/01 10:04:56;;;;;;;2.33;0.63;;;;;;;15.32;85.11;98980.66;5038171;28;20029;-75
2023/04/01 10:07:22;;;;;;;3.45;1.02;;;;;;;15.38;82.46;98989.28;5043232;28;20028;-75
2023/04/01 10:09:59;;;;;;;2.42;0.80;;;;;;;15.34;78.55;98997.41;5039296;28;20048;-75
2023/04/01 10:13:07;;;;;;;2.92;0.52;;;;;;;15.15;77.31;98996.63;5038563;28;20037;-75
2023/04/01 10:15:45;;;;;;;3.33;0.60;;;;;;;15.19;76.54;98992.84;5046893;28;20033;-75
2023/04/01 10:18:46;;;;;;;2.50;0.40;;;;;;;15.00;77.56;98990.25;5040286;28;20061;-76
2023/04/01 10:21:49;;;;;;;0.90;0.40;;;;;;;14.75;79.13;98995.00;5039041;28;20039;-75
2023/04/01 10:24:48;;;;;;;2.35;0.70;;;;;;;14.46;79.23;98998.09;5040535;28;20037;-74
2023/04/01 10:27:20;;;;;;;2.63;0.50;;;;;;;14.48;80.41;98995.34;5041241;28;20025;-75
2023/04/01 10:30:37;;;;;;;2.58;0.70;;;;;;;14.62;78.23;99000.06;5046869;28;20041;-75
2023/04/01 10:33:32;;;;;;;1.63;0.60;;;;;;;14.75;78.29;98987.94;5038115;28;20499;-75
2023/04/01 10:36:26;;;;;;;3.90;0.50;;;;;;;15.08;80.03;98993.38;5043143;28;20491;-75
2023/04/01 10:39:12;;;;;;;2.15;0.50;;;;;;;15.13;77.88;98990.50;5041060;28;20402;-75
2023/04/01 10:41:59;;;;;;;2.58;0.50;;;;;;;14.86;78.73;98993.59;5044881;28;20390;-75
2023/04/01 10:44:54;;;;;;;1.85;0.63;;;;;;;14.84;78.62;98992.78;5043619;28;20123;-75
2023/04/01 10:48:01;;;;;;;2.60;0.70;;;;;;;15.15;79.64;99004.59;5040999;28;20491;-75
2023/04/01 10:51:06;;;;;;;1.95;0.45;;;;;;;15.17;77.49;98993.88;5041055;28;20040;-75
2023/04/01 10:53:54;;;;;;;0.63;0.30;;;;;;;15.45;77.48;98994.22;5030952;28;20144;-76
2023/04/01 10:56:58;;;;;;;0.85;0.45;;;;;;;15.53;76.76;98996.47;5041763;28;20052;-75
2023/04/01 11:00:07;;;;;;;1.13;0.38;;;;;;;15.27;75.52;98992.47;5041099;28;20049;-76
2023/04/01 11:03:22;;;;;;;4.05;0.75;;;;;;;15.26;78.38;99007.56;5043394;28;20411;-75
2023/04/01 11:06:20;;;;;;;;;;;;;;;14.95;77.29;99002.03;5045457;28;20041;-75
2023/04/01 11:08:57;;;;;;;2.47;0.63;;;;;;;15.13;77.06;99006.47;5041845;28;19988;-74
2023/04/01 11:11:37;;;;;;;2.42;0.65;;;;;;;15.08;76.47;99004.00;5031599;28;20029;-76
2023/04/01 11:14:58;;;;;;;3.35;0.60;;;;;;;14.94;76.41;99006.50;5043083;28;20033;-75
2023/04/01 11:17:41;;;;;;;3.75;0.80;;;;;;;15.05;78.04;99011.28;4981131;28;20039;-76
2023/04/01 11:20:32;;;;;;;2.55;0.50;;;;;;;14.62;78.67;99018.66;5031160;28;20155;-76
2023/04/01 11:23:21;;;;;;;2.05;0.55;;;;;;;14.29;80.51;99008.63;5041935;28;20037;-75
2023/04/01 11:25:55;;;;;;;2.42;0.80;;;;;;;14.28;81.73;99001.59;5052243;28;20419;-75
2023/04/01 11:28:50;;;;;;;;;;;;;;;13.99;81.76;99006.44;5044147;28;20044;-75
2023/04/01 11:31:34;;;;;;;1.60;0.70;;;;;;;13.72;84.93;99008.47;5042771;28;19962;-75
2023/04/01 11:34:40;;;;;;;3.83;0.90;;;;;;;13.69;86.24;99007.75;5046556;28;20446;-75
2023/04/01 11:37:23;;;;;;;3.20;0.90;;;;;;;13.69;87.32;99013.06;5050115;28;20033;-75
2023/04/01 11:40:18;;;;;;;4.15;1.10;;;;;;;13.56;88.18;99015.38;5048844;28;20118;-75
2023/04/01 11:43:29;;;;;;;2.63;0.60;;;;;;;13.50;86.87;99021.81;5047716;28;20048;-75
2023/04/01 11:46:21;;;;;;;2.80;0.63;;;;;;;13.39;88.45;99021.41;5043873;28;20063;-75
2023/04/01 11:49:00;;;;;;;1.85;0.50;;;;;;;13.61;87.66;99015.19;5044495;28;20029;-75
2023/04/01 11:51:57;;;;;;;1.70;0.50;;;;;;;13.81;87.28;99018.69;5041420;28;20059;-75
2023/04/01 11:54:52;;;;;;;1.52;0.70;;;;;;;13.91;86.77;99024.47;5043152;28;20046;-75
2023/04/01 11:57:46;;;;;;;2.28;0.52;;;;;;;14.18;85.42;99026.81;5043129;28;20037;-75
2023/04/01 12:00:20;;;;;;;2.63;0.80;;;;;;;14.33;84.57;99026.13;5045275;28;20046;-75
2023/04/01 12:03:10;;;;;;;1.90;0.60;;;;;;;14.27;84.08;99025.53;5044266;28;20074;-75
2023/04/01 12:06:12;;;;;;;1.45;0.45;;;;;;;14.23;84.03;99025.69;5043749;28;20052;-75
2023/04/01 12:08:56;;;;;;;2.17;0.68;;;;;;;14.34;83.17;99027.84;5044888;28;20025;-75
2023/04/01 12:11:37;;;;;;;0.88;0.40;;;;;;;14.51;82.96;99024.41;5045364;28;20131;-75
2023/04/01 12:14:16;;;;;;;2.00;0.93;;;;;;;14.62;84.15;99022.16;5041562;28;20550;-75
2023/04/01 12:16:50;;;;;;;4.10;1.15;;;;;;;14.59;82.59;99026.75;5045390;28;20123;-75
2023/04/01 12:19:50;;;;;;;2.38;0.68;;;;;;;14.48;82.20;99020.09;5043302;28;20060;-76
2023/04/01 12:22:30;;;;;;;3.65;0.60;;;;;;;14.37;84.46;99027.69;5041382;28;20071;-75
2023/04/01 12:25:20;;;;;;;3.33;0.85;;;;;;;14.48;82.91;99021.91;5042721;28;20037;-74